Hart, Louisiana
Current Conditions -  °F | °C
As of 8:15 PM on Monday 22 Dec 2014 (Local Time) from KRSN Reporting Station
Haze Haze  
Wind Chill: 58°   Ceiling: 6000
Heat Index: 58°   Visibility: 5mi
Dew Point: 58°   Wind: 0mph
Humidity: 100%   Direction: NA
Pressure: 29.68"   Gusts: NA
Location:  32.0547°N, 92.4144°W
Report Text: KRSN 230215Z AUTO 00000KT 5SM BR SCT032 SCT043 BKN060 15/15 A2968 RMK AO2 T01450145
Loading
Personal Weather Stations






























Interactive Weather Map New forecast layout! Learn more

10-Day Weather Forecast

Advertisements
Track Severe Weather on mobile